Nelson House, Canada
Current Conditions -  °F | °C
As of 9:00 PM on Wednesday 26 Nov 2014 (Local Time) from CYTH Reporting Station
Clear Clear  
Wind Chill: -29°   Ceiling: Unl
Heat Index: -17°   Visibility: 15mi
Dew Point: -22°   Wind: 5mph
Humidity: 76%   Direction: 230°SW
Pressure: 30.36"   Gusts: NA
Location:  55.8°N, 98.87°W
Report Text: CYTH 270300Z 23004KT 15SM SKC M27/M30 A3036 RMK SLP317
Loading
Personal Weather Stations






























Interactive Weather Map New forecast layout! Learn more

10-Day Weather Forecast

Advertisements
Track Severe Weather on mobile